sensor_id;sensor_type;location;lat;lon;timestamp;P1;durP1;ratioP1;P2;durP2;ratioP2
7162;SDS011;3623;47.098;15.446;2023-04-06T00:02:17;5.53;;;5.05;;
7162;SDS011;3623;47.098;15.446;2023-04-06T00:04:45;5.00;;;4.43;;
7162;SDS011;3623;47.098;15.446;2023-04-06T00:07:14;5.38;;;4.95;;
7162;SDS011;3623;47.098;15.446;2023-04-06T00:09:44;6.38;;;4.25;;
7162;SDS011;3623;47.098;15.446;2023-04-06T00:12:12;8.75;;;5.10;;
7162;SDS011;3623;47.098;15.446;2023-04-06T00:14:41;4.18;;;3.85;;
7162;SDS011;3623;47.098;15.446;2023-04-06T00:17:10;4.88;;;4.20;;
7162;SDS011;3623;47.098;15.446;2023-04-06T00:19:38;6.43;;;5.00;;
7162;SDS011;3623;47.098;15.446;2023-04-06T00:22:07;6.03;;;5.10;;
7162;SDS011;3623;47.098;15.446;2023-04-06T00:24:35;5.00;;;4.60;;
7162;SDS011;3623;47.098;15.446;2023-04-06T00:27:05;4.90;;;4.50;;
7162;SDS011;3623;47.098;15.446;2023-04-06T00:29:34;4.07;;;3.78;;
7162;SDS011;3623;47.098;15.446;2023-04-06T00:32:03;7.38;;;4.13;;
7162;SDS011;3623;47.098;15.446;2023-04-06T00:34:32;4.63;;;4.32;;
7162;SDS011;3623;47.098;15.446;2023-04-06T00:37:01;5.85;;;4.53;;
7162;SDS011;3623;47.098;15.446;2023-04-06T00:39:29;4.97;;;4.25;;
7162;SDS011;3623;47.098;15.446;2023-04-06T00:41:57;6.25;;;4.50;;
7162;SDS011;3623;47.098;15.446;2023-04-06T00:44:27;4.47;;;4.10;;
7162;SDS011;3623;47.098;15.446;2023-04-06T00:46:57;5.97;;;4.70;;
7162;SDS011;3623;47.098;15.446;2023-04-06T00:49:25;4.38;;;3.97;;
7162;SDS011;3623;47.098;15.446;2023-04-06T00:51:54;8.55;;;5.20;;
7162;SDS011;3623;47.098;15.446;2023-04-06T00:54:22;10.45;;;4.95;;
7162;SDS011;3623;47.098;15.446;2023-04-06T00:56:51;6.53;;;4.68;;
7162;SDS011;3623;47.098;15.446;2023-04-06T00:59:20;5.65;;;5.00;;
7162;SDS011;3623;47.098;15.446;2023-04-06T01:01:50;5.88;;;4.40;;
7162;SDS011;3623;47.098;15.446;2023-04-06T01:04:18;9.20;;;4.32;;
7162;SDS011;3623;47.098;15.446;2023-04-06T01:06:48;5.50;;;5.00;;
7162;SDS011;3623;47.098;15.446;2023-04-06T01:09:16;4.43;;;4.05;;
7162;SDS011;3623;47.098;15.446;2023-04-06T01:11:45;7.63;;;5.82;;
7162;SDS011;3623;47.098;15.446;2023-04-06T01:14:13;8.43;;;5.05;;
7162;SDS011;3623;47.098;15.446;2023-04-06T01:16:42;5.70;;;4.38;;
7162;SDS011;3623;47.098;15.446;2023-04-06T01:19:13;11.45;;;5.00;;
7162;SDS011;3623;47.098;15.446;2023-04-06T01:21:41;5.10;;;4.60;;
7162;SDS011;3623;47.098;15.446;2023-04-06T01:24:11;5.22;;;4.82;;
7162;SDS011;3623;47.098;15.446;2023-04-06T01:26:40;10.00;;;5.10;;
7162;SDS011;3623;47.098;15.446;2023-04-06T01:29:09;5.38;;;4.65;;
7162;SDS011;3623;47.098;15.446;2023-04-06T01:31:37;5.65;;;5.15;;
7162;SDS011;3623;47.098;15.446;2023-04-06T01:34:06;4.78;;;4.28;;
7162;SDS011;3623;47.098;15.446;2023-04-06T01:36:34;5.78;;;4.55;;
7162;SDS011;3623;47.098;15.446;2023-04-06T01:39:03;8.43;;;5.43;;
7162;SDS011;3623;47.098;15.446;2023-04-06T01:41:33;4.70;;;4.40;;
7162;SDS011;3623;47.098;15.446;2023-04-06T01:44:01;6.10;;;5.50;;
7162;SDS011;3623;47.098;15.446;2023-04-06T01:46:30;5.57;;;4.43;;
7162;SDS011;3623;47.098;15.446;2023-04-06T01:48:59;5.03;;;4.55;;
7162;SDS011;3623;47.098;15.446;2023-04-06T01:51:27;6.10;;;4.55;;
7162;SDS011;3623;47.098;15.446;2023-04-06T01:53:56;7.63;;;5.32;;
7162;SDS011;3623;47.098;15.446;2023-04-06T01:56:25;5.05;;;4.35;;
7162;SDS011;3623;47.098;15.446;2023-04-06T01:58:55;7.45;;;4.60;;
7162;SDS011;3623;47.098;15.446;2023-04-06T02:01:23;4.78;;;4.38;;
7162;SDS011;3623;47.098;15.446;2023-04-06T02:03:52;5.35;;;4.85;;
7162;SDS011;3623;47.098;15.446;2023-04-06T02:06:20;5.20;;;4.65;;
7162;SDS011;3623;47.098;15.446;2023-04-06T02:08:48;7.47;;;4.05;;
7162;SDS011;3623;47.098;15.446;2023-04-06T02:11:17;4.65;;;3.83;;
7162;SDS011;3623;47.098;15.446;2023-04-06T02:13:46;5.70;;;5.22;;
7162;SDS011;3623;47.098;15.446;2023-04-06T02:16:15;4.63;;;4.25;;
7162;SDS011;3623;47.098;15.446;2023-04-06T02:18:44;5.72;;;3.85;;
7162;SDS011;3623;47.098;15.446;2023-04-06T02:21:12;4.93;;;4.47;;
7162;SDS011;3623;47.098;15.446;2023-04-06T02:23:45;4.43;;;4.03;;
7162;SDS011;3623;47.098;15.446;2023-04-06T02:26:14;7.30;;;4.68;;
7162;SDS011;3623;47.098;15.446;2023-04-06T02:28:43;5.72;;;5.10;;
7162;SDS011;3623;47.098;15.446;2023-04-06T02:31:11;5.90;;;4.93;;
7162;SDS011;3623;47.098;15.446;2023-04-06T02:33:42;6.90;;;4.43;;
7162;SDS011;3623;47.098;15.446;2023-04-06T02:36:10;5.95;;;4.70;;
7162;SDS011;3623;47.098;15.446;2023-04-06T02:38:39;3.75;;;3.50;;
7162;SDS011;3623;47.098;15.446;2023-04-06T02:41:07;3.70;;;3.40;;
7162;SDS011;3623;47.098;15.446;2023-04-06T02:43:35;4.60;;;4.25;;
7162;SDS011;3623;47.098;15.446;2023-04-06T02:46:03;3.80;;;3.50;;
7162;SDS011;3623;47.098;15.446;2023-04-06T02:48:32;7.43;;;4.50;;
7162;SDS011;3623;47.098;15.446;2023-04-06T02:51:03;4.38;;;4.10;;
7162;SDS011;3623;47.098;15.446;2023-04-06T02:53:31;4.05;;;3.75;;
7162;SDS011;3623;47.098;15.446;2023-04-06T02:56:00;4.60;;;4.25;;
7162;SDS011;3623;47.098;15.446;2023-04-06T02:58:28;3.78;;;3.42;;
7162;SDS011;3623;47.098;15.446;2023-04-06T03:00:56;5.63;;;4.70;;
7162;SDS011;3623;47.098;15.446;2023-04-06T03:03:24;5.85;;;4.57;;
7162;SDS011;3623;47.098;15.446;2023-04-06T03:05:52;3.95;;;3.28;;
7162;SDS011;3623;47.098;15.446;2023-04-06T03:08:25;8.38;;;5.00;;
7162;SDS011;3623;47.098;15.446;2023-04-06T03:10:53;7.75;;;4.43;;
7162;SDS011;3623;47.098;15.446;2023-04-06T03:13:21;4.93;;;4.53;;
7162;SDS011;3623;47.098;15.446;2023-04-06T03:15:49;4.43;;;3.70;;
7162;SDS011;3623;47.098;15.446;2023-04-06T03:18:20;5.30;;;4.80;;
7162;SDS011;3623;47.098;15.446;2023-04-06T03:20:48;4.40;;;4.10;;
7162;SDS011;3623;47.098;15.446;2023-04-06T03:23:18;4.95;;;4.55;;
7162;SDS011;3623;47.098;15.446;2023-04-06T03:25:48;7.65;;;4.70;;
7162;SDS011;3623;47.098;15.446;2023-04-06T03:28:16;9.32;;;5.25;;
7162;SDS011;3623;47.098;15.446;2023-04-06T03:30:45;4.68;;;4.13;;
7162;SDS011;3623;47.098;15.446;2023-04-06T03:33:13;6.72;;;4.18;;
7162;SDS011;3623;47.098;15.446;2023-04-06T03:35:41;5.07;;;4.57;;
7162;SDS011;3623;47.098;15.446;2023-04-06T03:38:10;4.72;;;3.75;;
7162;SDS011;3623;47.098;15.446;2023-04-06T03:40:38;5.88;;;4.38;;
7162;SDS011;3623;47.098;15.446;2023-04-06T03:43:09;4.85;;;4.35;;
7162;SDS011;3623;47.098;15.446;2023-04-06T03:45:37;3.88;;;3.58;;
7162;SDS011;3623;47.098;15.446;2023-04-06T03:48:06;4.90;;;4.60;;
7162;SDS011;3623;47.098;15.446;2023-04-06T03:50:34;4.38;;;4.10;;
7162;SDS011;3623;47.098;15.446;2023-04-06T03:53:02;7.82;;;4.35;;
7162;SDS011;3623;47.098;15.446;2023-04-06T03:55:31;4.70;;;4.30;;
7162;SDS011;3623;47.098;15.446;2023-04-06T03:57:59;4.28;;;3.92;;
7162;SDS011;3623;47.098;15.446;2023-04-06T04:00:29;4.80;;;4.43;;
7162;SDS011;3623;47.098;15.446;2023-04-06T04:02:58;4.45;;;4.07;;
7162;SDS011;3623;47.098;15.446;2023-04-06T04:05:27;5.93;;;4.97;;
7162;SDS011;3623;47.098;15.446;2023-04-06T04:07:55;4.72;;;4.25;;
7162;SDS011;3623;47.098;15.446;2023-04-06T04:10:24;11.60;;;5.15;;
7162;SDS011;3623;47.098;15.446;2023-04-06T04:12:52;4.57;;;4.13;;
7162;SDS011;3623;47.098;15.446;2023-04-06T04:15:20;5.90;;;4.60;;
7162;SDS011;3623;47.098;15.446;2023-04-06T04:17:50;5.82;;;4.45;;
7162;SDS011;3623;47.098;15.446;2023-04-06T04:20:19;7.57;;;4.93;;
7162;SDS011;3623;47.098;15.446;2023-04-06T04:22:47;6.47;;;4.68;;
7162;SDS011;3623;47.098;15.446;2023-04-06T04:25:16;5.55;;;5.05;;
7162;SDS011;3623;47.098;15.446;2023-04-06T04:27:44;5.85;;;4.63;;
7162;SDS011;3623;47.098;15.446;2023-04-06T04:30:12;7.03;;;5.13;;
7162;SDS011;3623;47.098;15.446;2023-04-06T04:32:41;5.85;;;4.25;;
7162;SDS011;3623;47.098;15.446;2023-04-06T04:35:11;5.22;;;4.82;;
7162;SDS011;3623;47.098;15.446;2023-04-06T04:37:40;6.82;;;4.88;;
7162;SDS011;3623;47.098;15.446;2023-04-06T04:40:09;4.57;;;4.05;;
7162;SDS011;3623;47.098;15.446;2023-04-06T04:42:38;4.78;;;4.38;;
7162;SDS011;3623;47.098;15.446;2023-04-06T04:45:06;7.60;;;5.18;;
7162;SDS011;3623;47.098;15.446;2023-04-06T04:47:35;7.05;;;4.45;;
7162;SDS011;3623;47.098;15.446;2023-04-06T04:50:04;4.60;;;4.30;;
7162;SDS011;3623;47.098;15.446;2023-04-06T04:52:34;5.68;;;5.03;;
7162;SDS011;3623;47.098;15.446;2023-04-06T04:55:02;8.70;;;4.55;;
7162;SDS011;3623;47.098;15.446;2023-04-06T04:57:31;4.95;;;4.55;;
7162;SDS011;3623;47.098;15.446;2023-04-06T04:59:59;5.20;;;4.75;;
7162;SDS011;3623;47.098;15.446;2023-04-06T05:02:28;5.53;;;5.03;;
7162;SDS011;3623;47.098;15.446;2023-04-06T05:04:56;7.60;;;5.38;;
7162;SDS011;3623;47.098;15.446;2023-04-06T05:07:25;8.52;;;5.47;;
7162;SDS011;3623;47.098;15.446;2023-04-06T05:09:55;5.47;;;4.97;;
7162;SDS011;3623;47.098;15.446;2023-04-06T05:12:23;5.13;;;4.63;;
7162;SDS011;3623;47.098;15.446;2023-04-06T05:14:52;6.18;;;4.43;;
7162;SDS011;3623;47.098;15.446;2023-04-06T05:17:21;6.07;;;4.78;;
7162;SDS011;3623;47.098;15.446;2023-04-06T05:19:50;5.68;;;4.38;;
7162;SDS011;3623;47.098;15.446;2023-04-06T05:22:19;7.72;;;3.55;;
7162;SDS011;3623;47.098;15.446;2023-04-06T05:24:47;4.50;;;4.10;;
7162;SDS011;3623;47.098;15.446;2023-04-06T05:27:18;4.60;;;4.13;;
7162;SDS011;3623;47.098;15.446;2023-04-06T05:29:47;4.95;;;4.10;;
7162;SDS011;3623;47.098;15.446;2023-04-06T05:32:15;4.35;;;3.92;;
7162;SDS011;3623;47.098;15.446;2023-04-06T05:34:47;5.60;;;5.00;;
7162;SDS011;3623;47.098;15.446;2023-04-06T05:37:16;5.43;;;4.30;;
7162;SDS011;3623;47.098;15.446;2023-04-06T05:39:44;5.30;;;4.90;;
7162;SDS011;3623;47.098;15.446;2023-04-06T05:42:12;5.00;;;4.57;;
7162;SDS011;3623;47.098;15.446;2023-04-06T05:44:43;4.90;;;4.50;;
7162;SDS011;3623;47.098;15.446;2023-04-06T05:47:11;4.85;;;3.78;;
7162;SDS011;3623;47.098;15.446;2023-04-06T05:49:41;5.90;;;4.82;;
7162;SDS011;3623;47.098;15.446;2023-04-06T05:52:09;5.60;;;5.18;;
7162;SDS011;3623;47.098;15.446;2023-04-06T05:54:38;6.45;;;5.95;;
7162;SDS011;3623;47.098;15.446;2023-04-06T05:57:06;7.07;;;5.30;;
7162;SDS011;3623;47.098;15.446;2023-04-06T05:59:35;6.45;;;4.20;;
7162;SDS011;3623;47.098;15.446;2023-04-06T06:02:05;5.72;;;4.80;;
7162;SDS011;3623;47.098;15.446;2023-04-06T06:04:33;5.88;;;4.95;;
7162;SDS011;3623;47.098;15.446;2023-04-06T06:07:02;5.15;;;4.63;;
7162;SDS011;3623;47.098;15.446;2023-04-06T06:09:31;5.30;;;4.80;;
7162;SDS011;3623;47.098;15.446;2023-04-06T06:11:59;4.70;;;4.40;;
7162;SDS011;3623;47.098;15.446;2023-04-06T06:14:29;5.47;;;4.97;;
7162;SDS011;3623;47.098;15.446;2023-04-06T06:16:58;6.07;;;5.47;;
7162;SDS011;3623;47.098;15.446;2023-04-06T06:19:28;5.07;;;4.68;;
7162;SDS011;3623;47.098;15.446;2023-04-06T06:21:57;6.45;;;5.05;;
7162;SDS011;3623;47.098;15.446;2023-04-06T06:24:27;5.32;;;4.00;;
7162;SDS011;3623;47.098;15.446;2023-04-06T06:26:56;5.03;;;4.55;;
7162;SDS011;3623;47.098;15.446;2023-04-06T06:29:25;4.45;;;4.05;;
7162;SDS011;3623;47.098;15.446;2023-04-06T06:31:52;6.85;;;5.30;;
7162;SDS011;3623;47.098;15.446;2023-04-06T06:34:20;5.95;;;4.95;;
7162;SDS011;3623;47.098;15.446;2023-04-06T06:36:49;7.07;;;5.57;;
7162;SDS011;3623;47.098;15.446;2023-04-06T06:39:16;6.55;;;4.72;;
7162;SDS011;3623;47.098;15.446;2023-04-06T06:41:44;9.35;;;5.32;;
7162;SDS011;3623;47.098;15.446;2023-04-06T06:44:11;5.20;;;4.70;;
7162;SDS011;3623;47.098;15.446;2023-04-06T06:46:38;14.00;;;5.88;;
7162;SDS011;3623;47.098;15.446;2023-04-06T06:49:06;6.07;;;4.90;;
7162;SDS011;3623;47.098;15.446;2023-04-06T06:51:33;11.10;;;5.47;;
7162;SDS011;3623;47.098;15.446;2023-04-06T06:54:02;7.20;;;4.97;;
7162;SDS011;3623;47.098;15.446;2023-04-06T06:56:30;7.47;;;4.95;;
7162;SDS011;3623;47.098;15.446;2023-04-06T06:58:57;6.32;;;5.05;;
7162;SDS011;3623;47.098;15.446;2023-04-06T07:01:25;8.65;;;5.35;;
7162;SDS011;3623;47.098;15.446;2023-04-06T07:03:52;13.40;;;4.53;;
7162;SDS011;3623;47.098;15.446;2023-04-06T07:06:19;5.80;;;5.28;;
7162;SDS011;3623;47.098;15.446;2023-04-06T07:08:47;7.57;;;5.28;;
7162;SDS011;3623;47.098;15.446;2023-04-06T07:11:16;9.85;;;5.70;;
7162;SDS011;3623;47.098;15.446;2023-04-06T07:13:43;10.88;;;5.60;;
7162;SDS011;3623;47.098;15.446;2023-04-06T07:16:11;7.63;;;5.05;;
7162;SDS011;3623;47.098;15.446;2023-04-06T07:18:38;5.38;;;4.85;;
7162;SDS011;3623;47.098;15.446;2023-04-06T07:21:05;6.68;;;4.50;;
7162;SDS011;3623;47.098;15.446;2023-04-06T07:23:33;5.95;;;5.25;;
7162;SDS011;3623;47.098;15.446;2023-04-06T07:26:00;6.25;;;5.00;;
7162;SDS011;3623;47.098;15.446;2023-04-06T07:28:29;7.65;;;5.15;;
7162;SDS011;3623;47.098;15.446;2023-04-06T07:30:56;5.10;;;4.55;;
7162;SDS011;3623;47.098;15.446;2023-04-06T07:33:24;5.32;;;4.70;;
7162;SDS011;3623;47.098;15.446;2023-04-06T07:35:55;5.32;;;4.82;;
7162;SDS011;3623;47.098;15.446;2023-04-06T07:38:23;4.60;;;4.20;;
7162;SDS011;3623;47.098;15.446;2023-04-06T07:40:51;4.88;;;3.88;;
7162;SDS011;3623;47.098;15.446;2023-04-06T07:43:18;5.72;;;5.22;;
7162;SDS011;3623;47.098;15.446;2023-04-06T07:45:47;4.55;;;4.15;;
7162;SDS011;3623;47.098;15.446;2023-04-06T07:48:14;4.40;;;4.00;;
7162;SDS011;3623;47.098;15.446;2023-04-06T07:50:42;4.40;;;4.00;;
7162;SDS011;3623;47.098;15.446;2023-04-06T07:53:09;5.28;;;4.65;;
7162;SDS011;3623;47.098;15.446;2023-04-06T07:55:37;4.63;;;4.00;;
7162;SDS011;3623;47.098;15.446;2023-04-06T07:58:04;5.30;;;4.80;;
7162;SDS011;3623;47.098;15.446;2023-04-06T08:00:32;5.10;;;4.45;;
7162;SDS011;3623;47.098;15.446;2023-04-06T08:03:01;4.13;;;3.78;;
7162;SDS011;3623;47.098;15.446;2023-04-06T08:05:29;3.90;;;3.53;;
7162;SDS011;3623;47.098;15.446;2023-04-06T08:07:56;5.70;;;3.78;;
7162;SDS011;3623;47.098;15.446;2023-04-06T08:10:24;4.53;;;4.13;;
7162;SDS011;3623;47.098;15.446;2023-04-06T08:12:51;6.63;;;4.72;;
7162;SDS011;3623;47.098;15.446;2023-04-06T08:15:19;11.13;;;7.10;;
7162;SDS011;3623;47.098;15.446;2023-04-06T08:17:47;5.75;;;5.28;;
7162;SDS011;3623;47.098;15.446;2023-04-06T08:20:15;8.85;;;6.25;;
7162;SDS011;3623;47.098;15.446;2023-04-06T08:22:43;10.02;;;6.57;;
7162;SDS011;3623;47.098;15.446;2023-04-06T08:25:10;8.27;;;5.05;;
7162;SDS011;3623;47.098;15.446;2023-04-06T08:27:38;5.25;;;3.97;;
7162;SDS011;3623;47.098;15.446;2023-04-06T08:30:06;5.68;;;4.28;;
7162;SDS011;3623;47.098;15.446;2023-04-06T08:32:33;4.28;;;3.70;;
7162;SDS011;3623;47.098;15.446;2023-04-06T08:35:01;5.97;;;4.20;;
7162;SDS011;3623;47.098;15.446;2023-04-06T08:37:30;3.53;;;3.30;;
7162;SDS011;3623;47.098;15.446;2023-04-06T08:39:58;4.03;;;3.70;;
7162;SDS011;3623;47.098;15.446;2023-04-06T08:42:26;4.97;;;4.47;;
7162;SDS011;3623;47.098;15.446;2023-04-06T08:44:53;3.85;;;3.55;;
7162;SDS011;3623;47.098;15.446;2023-04-06T08:47:21;3.88;;;3.58;;
7162;SDS011;3623;47.098;15.446;2023-04-06T08:49:49;3.70;;;3.40;;
7162;SDS011;3623;47.098;15.446;2023-04-06T08:52:17;4.28;;;3.97;;
7162;SDS011;3623;47.098;15.446;2023-04-06T08:54:46;3.75;;;3.45;;
7162;SDS011;3623;47.098;15.446;2023-04-06T08:57:14;4.28;;;3.97;;
7162;SDS011;3623;47.098;15.446;2023-04-06T08:59:42;4.72;;;4.40;;
7162;SDS011;3623;47.098;15.446;2023-04-06T09:02:11;3.75;;;3.45;;
7162;SDS011;3623;47.098;15.446;2023-04-06T09:04:40;4.40;;;4.00;;
7162;SDS011;3623;47.098;15.446;2023-04-06T09:07:08;7.28;;;3.65;;
7162;SDS011;3623;47.098;15.446;2023-04-06T09:09:35;4.05;;;3.60;;
7162;SDS011;3623;47.098;15.446;2023-04-06T09:12:09;3.20;;;3.00;;
7162;SDS011;3623;47.098;15.446;2023-04-06T09:14:37;4.13;;;3.83;;
7162;SDS011;3623;47.098;15.446;2023-04-06T09:17:06;4.20;;;3.88;;
7162;SDS011;3623;47.098;15.446;2023-04-06T09:19:33;3.58;;;3.28;;
7162;SDS011;3623;47.098;15.446;2023-04-06T09:22:01;3.63;;;3.33;;
7162;SDS011;3623;47.098;15.446;2023-04-06T09:24:38;4.72;;;3.97;;
7162;SDS011;3623;47.098;15.446;2023-04-06T09:27:06;8.23;;;4.10;;
7162;SDS011;3623;47.098;15.446;2023-04-06T09:29:35;4.20;;;3.90;;
7162;SDS011;3623;47.098;15.446;2023-04-06T09:32:03;2.95;;;2.70;;
7162;SDS011;3623;47.098;15.446;2023-04-06T09:34:31;3.80;;;3.45;;
7162;SDS011;3623;47.098;15.446;2023-04-06T09:36:58;5.40;;;3.28;;
7162;SDS011;3623;47.098;15.446;2023-04-06T09:39:26;3.67;;;3.33;;
7162;SDS011;3623;47.098;15.446;2023-04-06T09:41:54;4.80;;;3.42;;
7162;SDS011;3623;47.098;15.446;2023-04-06T09:44:21;3.70;;;3.35;;
7162;SDS011;3623;47.098;15.446;2023-04-06T09:46:51;3.60;;;3.25;;
7162;SDS011;3623;47.098;15.446;2023-04-06T09:49:20;3.47;;;3.28;;
7162;SDS011;3623;47.098;15.446;2023-04-06T09:51:48;3.50;;;3.03;;
7162;SDS011;3623;47.098;15.446;2023-04-06T09:54:21;3.38;;;3.10;;
7162;SDS011;3623;47.098;15.446;2023-04-06T09:56:50;4.13;;;3.58;;
7162;SDS011;3623;47.098;15.446;2023-04-06T09:59:18;3.45;;;3.15;;
7162;SDS011;3623;47.098;15.446;2023-04-06T10:01:48;2.90;;;2.63;;
7162;SDS011;3623;47.098;15.446;2023-04-06T10:04:20;3.60;;;3.30;;
7162;SDS011;3623;47.098;15.446;2023-04-06T10:06:49;4.00;;;3.70;;
7162;SDS011;3623;47.098;15.446;2023-04-06T10:09:18;3.20;;;2.92;;
7162;SDS011;3623;47.098;15.446;2023-04-06T10:11:47;4.07;;;3.78;;
7162;SDS011;3623;47.098;15.446;2023-04-06T10:14:15;4.93;;;3.90;;
7162;SDS011;3623;47.098;15.446;2023-04-06T10:16:42;3.03;;;2.83;;
7162;SDS011;3623;47.098;15.446;2023-04-06T10:19:12;3.97;;;3.60;;
7162;SDS011;3623;47.098;15.446;2023-04-06T10:21:42;4.32;;;3.58;;
7162;SDS011;3623;47.098;15.446;2023-04-06T10:24:11;3.10;;;2.63;;
7162;SDS011;3623;47.098;15.446;2023-04-06T10:26:39;3.83;;;2.85;;
7162;SDS011;3623;47.098;15.446;2023-04-06T10:29:06;2.78;;;2.67;;
7162;SDS011;3623;47.098;15.446;2023-04-06T10:31:39;3.55;;;3.25;;
7162;SDS011;3623;47.098;15.446;2023-04-06T10:34:06;3.63;;;3.33;;
7162;SDS011;3623;47.098;15.446;2023-04-06T10:36:34;3.63;;;3.05;;
7162;SDS011;3623;47.098;15.446;2023-04-06T10:39:03;5.60;;;3.30;;
7162;SDS011;3623;47.098;15.446;2023-04-06T10:41:34;2.80;;;2.53;;
7162;SDS011;3623;47.098;15.446;2023-04-06T10:44:01;2.80;;;2.30;;
7162;SDS011;3623;47.098;15.446;2023-04-06T10:46:29;2.90;;;2.70;;
7162;SDS011;3623;47.098;15.446;2023-04-06T10:48:57;2.30;;;2.20;;
7162;SDS011;3623;47.098;15.446;2023-04-06T10:51:25;2.60;;;2.50;;
7162;SDS011;3623;47.098;15.446;2023-04-06T10:53:53;2.13;;;2.03;;
7162;SDS011;3623;47.098;15.446;2023-04-06T10:56:23;3.13;;;2.70;;
7162;SDS011;3623;47.098;15.446;2023-04-06T10:58:53;2.27;;;2.17;;
7162;SDS011;3623;47.098;15.446;2023-04-06T11:01:21;2.70;;;2.50;;
7162;SDS011;3623;47.098;15.446;2023-04-06T11:03:50;2.63;;;2.43;;
7162;SDS011;3623;47.098;15.446;2023-04-06T11:06:18;2.40;;;2.20;;
7162;SDS011;3623;47.098;15.446;2023-04-06T11:08:46;2.30;;;2.10;;
7162;SDS011;3623;47.098;15.446;2023-04-06T11:11:14;2.93;;;2.80;;
7162;SDS011;3623;47.098;15.446;2023-04-06T11:13:46;2.67;;;2.20;;
7162;SDS011;3623;47.098;15.446;2023-04-06T11:16:15;2.40;;;2.30;;
7162;SDS011;3623;47.098;15.446;2023-04-06T11:18:46;3.30;;;2.27;;
7162;SDS011;3623;47.098;15.446;2023-04-06T11:21:14;6.43;;;2.67;;
7162;SDS011;3623;47.098;15.446;2023-04-06T11:23:41;2.10;;;1.90;;
7162;SDS011;3623;47.098;15.446;2023-04-06T11:26:10;1.90;;;1.80;;
7162;SDS011;3623;47.098;15.446;2023-04-06T11:28:38;2.10;;;2.00;;
7162;SDS011;3623;47.098;15.446;2023-04-06T11:31:07;2.90;;;2.53;;
7162;SDS011;3623;47.098;15.446;2023-04-06T11:33:37;3.70;;;2.20;;
7162;SDS011;3623;47.098;15.446;2023-04-06T11:36:05;1.97;;;1.40;;
7162;SDS011;3623;47.098;15.446;2023-04-06T11:38:33;2.50;;;2.40;;
7162;SDS011;3623;47.098;15.446;2023-04-06T11:41:01;1.80;;;1.63;;
7162;SDS011;3623;47.098;15.446;2023-04-06T11:43:29;2.67;;;1.83;;
7162;SDS011;3623;47.098;15.446;2023-04-06T11:46:00;1.93;;;1.80;;
7162;SDS011;3623;47.098;15.446;2023-04-06T11:48:30;2.03;;;1.83;;
7162;SDS011;3623;47.098;15.446;2023-04-06T11:50:57;3.43;;;2.30;;
7162;SDS011;3623;47.098;15.446;2023-04-06T11:53:26;1.77;;;1.70;;
7162;SDS011;3623;47.098;15.446;2023-04-06T11:55:54;2.10;;;2.00;;
7162;SDS011;3623;47.098;15.446;2023-04-06T11:58:21;2.10;;;1.87;;
7162;SDS011;3623;47.098;15.446;2023-04-06T12:00:49;2.30;;;2.20;;
7162;SDS011;3623;47.098;15.446;2023-04-06T12:03:16;4.83;;;2.07;;
7162;SDS011;3623;47.098;15.446;2023-04-06T12:05:45;1.77;;;1.67;;
7162;SDS011;3623;47.098;15.446;2023-04-06T12:08:12;2.53;;;2.33;;
7162;SDS011;3623;47.098;15.446;2023-04-06T12:10:40;2.20;;;2.10;;
7162;SDS011;3623;47.098;15.446;2023-04-06T12:13:07;2.07;;;1.97;;
7162;SDS011;3623;47.098;15.446;2023-04-06T12:15:35;2.17;;;2.07;;
7162;SDS011;3623;47.098;15.446;2023-04-06T12:18:02;1.93;;;1.80;;
7162;SDS011;3623;47.098;15.446;2023-04-06T12:20:31;2.00;;;1.90;;
7162;SDS011;3623;47.098;15.446;2023-04-06T12:22:59;1.60;;;1.50;;
7162;SDS011;3623;47.098;15.446;2023-04-06T12:25:27;6.00;;;2.30;;
7162;SDS011;3623;47.098;15.446;2023-04-06T12:27:54;1.93;;;1.83;;
7162;SDS011;3623;47.098;15.446;2023-04-06T12:30:22;1.40;;;1.40;;
7162;SDS011;3623;47.098;15.446;2023-04-06T12:32:50;1.80;;;1.70;;
7162;SDS011;3623;47.098;15.446;2023-04-06T12:35:17;2.00;;;1.60;;
7162;SDS011;3623;47.098;15.446;2023-04-06T12:37:44;1.70;;;1.60;;
7162;SDS011;3623;47.098;15.446;2023-04-06T12:40:13;1.70;;;1.60;;
7162;SDS011;3623;47.098;15.446;2023-04-06T12:42:41;1.93;;;1.83;;
7162;SDS011;3623;47.098;15.446;2023-04-06T12:45:08;1.63;;;1.50;;
7162;SDS011;3623;47.098;15.446;2023-04-06T12:47:36;1.47;;;1.47;;
7162;SDS011;3623;47.098;15.446;2023-04-06T12:50:04;1.93;;;1.83;;
7162;SDS011;3623;47.098;15.446;2023-04-06T12:52:32;1.50;;;1.40;;
7162;SDS011;3623;47.098;15.446;2023-04-06T12:55:00;1.93;;;1.83;;
7162;SDS011;3623;47.098;15.446;2023-04-06T12:57:29;1.80;;;1.47;;
7162;SDS011;3623;47.098;15.446;2023-04-06T12:59:57;1.67;;;1.57;;
7162;SDS011;3623;47.098;15.446;2023-04-06T13:02:25;1.60;;;1.50;;
7162;SDS011;3623;47.098;15.446;2023-04-06T13:04:52;1.40;;;1.40;;
7162;SDS011;3623;47.098;15.446;2023-04-06T13:07:20;2.50;;;1.40;;
7162;SDS011;3623;47.098;15.446;2023-04-06T13:09:47;1.87;;;1.47;;
7162;SDS011;3623;47.098;15.446;2023-04-06T13:12:15;3.03;;;1.73;;
7162;SDS011;3623;47.098;15.446;2023-04-06T13:14:44;2.00;;;1.53;;
7162;SDS011;3623;47.098;15.446;2023-04-06T13:17:16;2.67;;;1.60;;
7162;SDS011;3623;47.098;15.446;2023-04-06T13:19:43;2.37;;;2.27;;
7162;SDS011;3623;47.098;15.446;2023-04-06T13:22:11;2.37;;;2.17;;
7162;SDS011;3623;47.098;15.446;2023-04-06T13:24:38;2.60;;;1.93;;
7162;SDS011;3623;47.098;15.446;2023-04-06T13:27:06;1.80;;;1.60;;
7162;SDS011;3623;47.098;15.446;2023-04-06T13:29:33;1.63;;;1.63;;
7162;SDS011;3623;47.098;15.446;2023-04-06T13:32:02;2.00;;;1.90;;
7162;SDS011;3623;47.098;15.446;2023-04-06T13:34:30;1.83;;;1.73;;
7162;SDS011;3623;47.098;15.446;2023-04-06T13:36:57;2.10;;;2.00;;
7162;SDS011;3623;47.098;15.446;2023-04-06T13:39:25;1.70;;;1.60;;
7162;SDS011;3623;47.098;15.446;2023-04-06T13:41:53;1.87;;;1.70;;
7162;SDS011;3623;47.098;15.446;2023-04-06T13:44:20;1.87;;;1.77;;
7162;SDS011;3623;47.098;15.446;2023-04-06T13:46:47;2.00;;;1.90;;
7162;SDS011;3623;47.098;15.446;2023-04-06T13:49:16;2.77;;;2.67;;
7162;SDS011;3623;47.098;15.446;2023-04-06T13:51:43;5.37;;;2.53;;
7162;SDS011;3623;47.098;15.446;2023-04-06T13:54:10;2.70;;;1.40;;
7162;SDS011;3623;47.098;15.446;2023-04-06T13:56:37;2.07;;;1.73;;
7162;SDS011;3623;47.098;15.446;2023-04-06T13:59:04;2.40;;;1.87;;
7162;SDS011;3623;47.098;15.446;2023-04-06T14:01:31;1.87;;;1.60;;
7162;SDS011;3623;47.098;15.446;2023-04-06T14:03:58;2.27;;;2.07;;
7162;SDS011;3623;47.098;15.446;2023-04-06T14:06:27;1.50;;;1.40;;
7162;SDS011;3623;47.098;15.446;2023-04-06T14:08:54;2.47;;;1.90;;
7162;SDS011;3623;47.098;15.446;2023-04-06T14:11:22;2.80;;;2.00;;
7162;SDS011;3623;47.098;15.446;2023-04-06T14:13:49;3.37;;;1.63;;
7162;SDS011;3623;47.098;15.446;2023-04-06T14:16:16;2.70;;;1.67;;
7162;SDS011;3623;47.098;15.446;2023-04-06T14:18:44;3.50;;;1.47;;
7162;SDS011;3623;47.098;15.446;2023-04-06T14:21:11;2.43;;;2.07;;
7162;SDS011;3623;47.098;15.446;2023-04-06T14:23:41;1.43;;;1.33;;
7162;SDS011;3623;47.098;15.446;2023-04-06T14:26:08;1.50;;;1.40;;
7162;SDS011;3623;47.098;15.446;2023-04-06T14:28:35;2.40;;;1.47;;
7162;SDS011;3623;47.098;15.446;2023-04-06T14:31:09;1.80;;;1.70;;
7162;SDS011;3623;47.098;15.446;2023-04-06T14:33:37;1.87;;;1.60;;
7162;SDS011;3623;47.098;15.446;2023-04-06T14:36:04;1.77;;;1.27;;
7162;SDS011;3623;47.098;15.446;2023-04-06T14:38:33;2.40;;;1.53;;
7162;SDS011;3623;47.098;15.446;2023-04-06T14:41:02;1.40;;;1.30;;
7162;SDS011;3623;47.098;15.446;2023-04-06T14:43:29;1.40;;;1.20;;
7162;SDS011;3623;47.098;15.446;2023-04-06T14:45:59;2.83;;;1.90;;
7162;SDS011;3623;47.098;15.446;2023-04-06T14:48:26;1.53;;;1.47;;
7162;SDS011;3623;47.098;15.446;2023-04-06T14:50:54;2.70;;;1.60;;
7162;SDS011;3623;47.098;15.446;2023-04-06T14:53:22;2.13;;;1.90;;
7162;SDS011;3623;47.098;15.446;2023-04-06T14:55:49;2.07;;;1.97;;
7162;SDS011;3623;47.098;15.446;2023-04-06T14:58:18;1.50;;;1.47;;
7162;SDS011;3623;47.098;15.446;2023-04-06T15:00:45;2.30;;;1.70;;
7162;SDS011;3623;47.098;15.446;2023-04-06T15:03:13;2.77;;;1.00;;
7162;SDS011;3623;47.098;15.446;2023-04-06T15:05:40;1.37;;;1.30;;
7162;SDS011;3623;47.098;15.446;2023-04-06T15:08:07;1.37;;;1.17;;